Time;durP1;ratioP1;P1;durP2;ratioP2;P2;SDS_P1;SDS_P2;PMS_P1;PMS_P2;Temp;Humidity;BMP_temperature;BMP_pressure;BME280_temperature;BME280_humidity;BME280_pressure;Samples;Min_cycle;Max_cycle;Signal;HPM_P1;HPM_P2
2024/01/08 00:01:39;;;;;;;12.57;6.23;;;1.40;99.90;;;-0.58;100.00;99412.63;10237274;28;98813;-86
2024/01/08 00:06:43;;;;;;;13.07;5.27;;;1.40;99.90;;;-0.61;100.00;99418.88;10278113;28;98312;-87
2024/01/08 00:11:46;;;;;;;14.10;6.20;;;1.40;99.90;;;-0.67;100.00;99426.34;10247383;28;98434;-86
2024/01/08 00:16:50;;;;;;;14.43;6.43;;;1.30;99.90;;;-0.73;100.00;99439.84;10247190;28;98656;-86
2024/01/08 00:21:53;;;;;;;12.17;6.60;;;1.30;99.90;;;-0.78;100.00;99449.78;10273273;28;96760;-86
2024/01/08 00:26:57;;;;;;;14.10;6.63;;;1.20;99.90;;;-0.87;100.00;99457.38;10242429;28;98828;-86
2024/01/08 00:32:00;;;;;;;10.57;5.70;;;1.10;99.90;;;-0.98;100.00;99466.91;10249495;28;96620;-86
2024/01/08 00:37:04;;;;;;;13.00;6.77;;;1.00;99.90;;;-1.11;100.00;99469.59;10245170;28;96850;-86
2024/01/08 00:42:07;;;;;;;15.60;7.07;;;0.90;99.90;;;-1.22;100.00;99474.75;10280512;28;97530;-86
2024/01/08 00:47:11;;;;;;;12.47;6.67;;;0.80;99.90;;;-1.36;100.00;99479.19;10248950;28;97478;-86
2024/01/08 00:52:14;;;;;;;14.43;6.63;;;0.70;99.90;;;-1.40;100.00;99477.72;10247865;28;97203;-86
2024/01/08 00:57:18;;;;;;;13.40;6.63;;;0.60;99.90;;;-1.45;100.00;99479.84;10249673;28;96637;-86
2024/01/08 01:02:22;;;;;;;14.67;7.53;;;0.50;99.90;;;-1.52;100.00;99478.59;10228421;28;97749;-86
2024/01/08 01:07:29;;;;;;;14.60;7.37;;;0.50;99.90;;;-1.53;100.00;99489.97;10262442;28;96959;-87
2024/01/08 01:12:33;;;;;;;16.93;7.87;;;0.50;99.90;;;-1.53;100.00;99502.19;10261620;28;96662;-86
2024/01/08 01:17:36;;;;;;;13.57;6.60;;;0.50;99.90;;;-1.54;100.00;99496.13;10280838;28;96656;-86
2024/01/08 01:22:40;;;;;;;15.13;7.63;;;0.50;99.90;;;-1.52;100.00;99504.66;10276971;28;96696;-86
2024/01/08 01:27:44;;;;;;;14.87;7.67;;;0.50;99.90;;;-1.58;100.00;99502.50;10244489;28;96590;-86
2024/01/08 01:32:47;;;;;;;15.83;7.50;;;0.50;99.90;;;-1.55;100.00;99512.72;10245144;28;98207;-87
2024/01/08 01:37:52;;;;;;;15.80;6.37;;;0.50;99.90;;;-1.56;100.00;99505.84;10231230;28;96604;-86
2024/01/08 01:42:56;;;;;;;14.60;7.00;;;0.50;99.90;;;-1.59;100.00;99503.44;10261244;28;96725;-85
2024/01/08 01:48:04;;;;;;;14.80;6.87;;;0.50;99.90;;;-1.62;100.00;99503.63;10245644;28;96916;-85
2024/01/08 01:53:08;;;;;;;14.93;7.07;;;0.50;99.90;;;-1.64;100.00;99502.91;10242853;28;96579;-86
2024/01/08 01:58:18;;;;;;;12.73;6.63;;;0.40;99.90;;;-1.63;100.00;99499.38;10262531;28;98576;-86
2024/01/08 02:03:22;;;;;;;12.47;6.57;;;0.50;99.90;;;-1.66;100.00;99504.81;10238067;28;96789;-86
2024/01/08 02:08:28;;;;;;;12.47;6.47;;;0.40;99.90;;;-1.64;100.00;99510.75;10272445;28;97253;-85
2024/01/08 02:13:38;;;;;;;12.95;6.68;;;0.40;99.90;;;-1.66;100.00;99513.47;10227095;28;96719;-85
2024/01/08 02:18:45;;;;;;;14.73;6.27;;;0.40;99.90;;;-1.66;100.00;99513.47;10222042;28;96667;-85
2024/01/08 02:23:50;;;;;;;15.43;6.17;;;0.40;99.90;;;-1.64;100.00;99521.16;10260115;28;98366;-85
2024/01/08 02:28:54;;;;;;;11.63;6.50;;;0.40;99.90;;;-1.62;100.00;99520.13;10245616;28;97527;-85
2024/01/08 02:33:58;;;;;;;15.40;6.80;;;0.40;99.90;;;-1.60;100.00;99527.00;10255844;28;98310;-85
2024/01/08 02:39:07;;;;;;;18.07;6.90;;;0.50;99.90;;;-1.57;100.00;99538.03;10239425;28;97577;-85
2024/01/08 02:44:13;;;;;;;11.70;6.00;;;0.50;99.90;;;-1.51;100.00;99548.00;10239968;28;96562;-85
2024/01/08 02:49:16;;;;;;;14.47;6.83;;;0.50;99.90;;;-1.48;100.00;99547.00;10246492;28;96648;-85
2024/01/08 02:54:24;;;;;;;12.00;5.50;;;0.50;99.90;;;-1.48;100.00;99549.59;10246772;28;96546;-85
2024/01/08 02:59:29;;;;;;;11.60;6.40;;;0.60;99.90;;;-1.52;100.00;99540.31;10244032;28;97048;-85
2024/01/08 03:04:38;;;;;;;14.77;6.40;;;0.50;99.90;;;-1.54;100.00;99542.19;10225928;28;96627;-85
2024/01/08 03:09:56;;;;;;;13.77;6.57;;;0.50;99.90;;;-1.52;100.00;99550.75;10244839;28;98730;-85
2024/01/08 03:15:00;;;;;;;10.73;6.20;;;0.50;99.90;;;-1.56;100.00;99552.75;10241001;28;97117;-85
2024/01/08 03:20:08;;;;;;;17.43;7.13;;;0.50;99.90;;;-1.61;100.00;99554.84;10276317;28;96592;-85
2024/01/08 03:25:12;;;;;;;12.60;6.00;;;0.50;99.90;;;-1.65;100.00;99559.41;10243161;28;96788;-85
2024/01/08 03:30:19;;;;;;;11.83;6.33;;;0.40;99.90;;;-1.68;100.00;99575.25;10244598;28;97815;-85
2024/01/08 03:35:25;;;;;;;17.03;7.10;;;0.40;99.90;;;-1.70;100.00;99576.28;10243255;28;96627;-86
2024/01/08 03:40:37;;;;;;;12.73;6.68;;;0.40;99.90;;;-1.71;100.00;99588.47;10256080;28;96963;-85
2024/01/08 03:45:41;;;;;;;14.13;7.37;;;0.40;99.90;;;-1.75;100.00;99596.59;10235515;28;98326;-85
2024/01/08 03:50:44;;;;;;;12.73;6.00;;;0.30;99.90;;;-1.79;100.00;99593.41;10250722;28;98047;-85
2024/01/08 03:55:49;;;;;;;14.07;6.30;;;0.30;99.90;;;-1.80;100.00;99603.91;10248906;28;98556;-85
2024/01/08 04:00:56;;;;;;;13.87;6.93;;;0.30;99.90;;;-1.81;100.00;99604.84;10252128;28;97326;-85
2024/01/08 04:06:01;;;;;;;15.03;6.90;;;0.30;99.90;;;-1.82;100.00;99605.78;10253929;28;96578;-85
2024/01/08 04:11:09;;;;;;;12.23;6.10;;;0.20;99.90;;;-1.82;100.00;99624.00;10250892;28;96709;-85
2024/01/08 04:16:12;;;;;;;15.23;6.87;;;0.20;99.90;;;-1.82;100.00;99617.03;10249602;28;96752;-85
2024/01/08 04:21:17;;;;;;;13.30;6.33;;;0.20;99.90;;;-1.81;100.00;99625.66;10248067;28;96889;-85
2024/01/08 04:26:23;;;;;;;15.23;6.67;;;0.20;99.90;;;-1.81;100.00;99629.09;10257254;28;96580;-85
2024/01/08 04:31:28;;;;;;;16.17;6.17;;;0.20;99.90;;;-1.81;100.00;99625.66;10278563;28;96761;-85
2024/01/08 04:36:32;;;;;;;11.93;5.83;;;0.20;99.90;;;-1.83;100.00;99636.19;10247027;28;97265;-85
2024/01/08 04:41:35;;;;;;;10.77;5.03;;;0.20;99.90;;;-1.80;100.00;99636.00;10233482;28;98992;-86
2024/01/08 04:46:43;;;;;;;18.23;7.83;;;0.20;99.90;;;-1.78;100.00;99633.28;10264144;28;98030;-85
2024/01/08 04:51:47;;;;;;;14.20;6.60;;;0.20;99.90;;;-1.80;100.00;99637.75;10250166;28;97820;-86
2024/01/08 04:56:50;;;;;;;14.17;6.70;;;0.20;99.90;;;-1.80;100.00;99654.25;10278954;28;96576;-86
2024/01/08 05:01:54;;;;;;;16.13;6.23;;;0.20;99.90;;;-1.82;100.00;99666.50;10271107;28;96581;-86
2024/01/08 05:06:57;;;;;;;17.03;6.40;;;0.20;99.90;;;-1.83;100.00;99666.63;10244946;28;96710;-86
2024/01/08 05:12:04;;;;;;;17.77;6.17;;;0.20;99.90;;;-1.84;100.00;99677.97;10243564;28;96586;-85
2024/01/08 05:17:07;;;;;;;13.57;6.60;;;0.20;99.90;;;-1.85;100.00;99689.34;10244500;28;98657;-86
2024/01/08 05:22:10;;;;;;;12.10;6.17;;;0.20;99.90;;;-1.91;100.00;99694.00;10240498;28;96612;-86
2024/01/08 05:27:14;;;;;;;16.03;6.23;;;0.10;99.90;;;-1.95;100.00;99705.56;10239938;28;97145;-86
2024/01/08 05:32:18;;;;;;;16.03;7.10;;;0.10;99.90;;;-2.01;100.00;99708.56;10256458;28;97184;-86
2024/01/08 05:37:21;;;;;;;11.90;6.17;;;0.00;99.90;;;-2.06;100.00;99708.03;10264552;28;98329;-87
2024/01/08 05:42:24;;;;;;;11.73;5.47;;;0.00;99.90;;;-2.04;100.00;99716.59;10243751;28;97313;-86
2024/01/08 05:47:28;;;;;;;15.50;6.67;;;0.00;99.90;;;-2.01;100.00;99725.97;10244032;28;96965;-86
2024/01/08 05:52:32;;;;;;;15.07;6.10;;;0.00;99.90;;;-2.07;100.00;99731.56;10248694;28;96478;-86
2024/01/08 05:57:36;;;;;;;11.23;6.10;;;0.00;99.90;;;-2.10;100.00;99740.38;10227450;28;96571;-86
2024/01/08 06:02:39;;;;;;;11.03;5.17;;;-0.10;99.90;;;-2.13;100.00;99745.81;10237757;28;96565;-86
2024/01/08 06:07:43;;;;;;;9.67;5.30;;;-0.10;99.90;;;-2.16;100.00;99748.59;10242799;28;96552;-86
2024/01/08 06:12:46;;;;;;;12.23;5.53;;;-0.10;99.90;;;-2.21;100.00;99751.50;10250058;28;96411;-86
2024/01/08 06:17:50;;;;;;;12.87;6.37;;;-0.20;99.90;;;-2.16;100.00;99759.00;10250955;28;96420;-86
2024/01/08 06:22:54;;;;;;;14.13;6.73;;;-0.10;99.90;;;-2.16;100.00;99772.03;10250245;28;96484;-86
2024/01/08 06:27:57;;;;;;;12.70;5.47;;;-0.10;99.90;;;-2.23;100.00;99773.34;10246293;28;96508;-86
2024/01/08 06:33:01;;;;;;;14.93;6.57;;;-0.20;99.90;;;-2.23;100.00;99781.16;10249621;28;96511;-87
2024/01/08 06:38:06;;;;;;;12.63;6.23;;;-0.20;99.90;;;-2.21;100.00;99785.34;10248124;28;98370;-88
2024/01/08 06:43:10;;;;;;;19.53;7.27;;;-0.20;99.90;;;-2.22;100.00;99799.31;10250447;28;96442;-86
2024/01/08 06:48:13;;;;;;;17.20;7.23;;;-0.20;99.90;;;-2.24;100.00;99805.53;10249886;28;96521;-86
2024/01/08 06:53:17;;;;;;;22.27;8.73;;;-0.20;99.90;;;-2.23;100.00;99807.19;10248821;28;96984;-86
2024/01/08 06:58:20;;;;;;;13.20;6.37;;;-0.20;99.90;;;-2.22;100.00;99808.84;10248969;28;96521;-86
2024/01/08 07:03:24;;;;;;;16.03;6.73;;;-0.20;99.90;;;-2.15;100.00;99825.78;10264514;28;97513;-86
2024/01/08 07:08:29;;;;;;;15.17;6.43;;;-0.10;99.90;;;-2.08;100.00;99829.66;10242334;28;97104;-87
2024/01/08 07:13:33;;;;;;;13.30;5.97;;;0.00;99.90;;;-2.03;100.00;99837.19;10270470;28;96567;-86
2024/01/08 07:18:36;;;;;;;12.93;6.13;;;0.00;99.90;;;-1.98;100.00;99846.38;10244277;28;97707;-87
2024/01/08 07:23:41;;;;;;;13.50;6.43;;;0.10;99.90;;;-1.95;100.00;99856.59;10260069;28;97969;-86
2024/01/08 07:28:46;;;;;;;16.13;6.77;;;0.10;99.90;;;-1.93;100.00;99859.94;10246302;28;96630;-87
2024/01/08 07:33:49;;;;;;;16.67;6.67;;;0.10;99.90;;;-1.90;100.00;99864.13;10239007;28;96600;-87
2024/01/08 07:38:53;;;;;;;13.50;6.43;;;0.20;99.90;;;-1.91;100.00;99865.91;10277604;28;96552;-86
2024/01/08 07:44:00;;;;;;;15.03;7.07;;;0.20;99.90;;;-1.85;100.00;99882.91;10254965;28;96579;-87
2024/01/08 07:49:04;;;;;;;15.47;6.20;;;0.30;99.90;;;-1.82;100.00;99892.28;10253534;28;97592;-86
2024/01/08 07:54:08;;;;;;;15.23;6.23;;;0.30;99.90;;;-1.79;100.00;99898.16;10252621;28;96447;-86
2024/01/08 07:59:11;;;;;;;14.43;7.40;;;0.30;99.90;;;-1.76;100.00;99902.31;10256415;28;96565;-87
2024/01/08 08:04:15;;;;;;;10.27;5.30;;;0.30;99.90;;;-1.70;100.00;99910.56;10267000;28;96554;-87
2024/01/08 08:09:19;;;;;;;12.77;5.43;;;0.40;99.90;;;-1.62;100.00;99917.91;10278498;28;97091;-87
2024/01/08 08:14:23;;;;;;;12.60;6.27;;;0.40;99.90;;;-1.57;100.00;99928.03;10208477;28;1226686;-87
2024/01/08 08:19:27;;;;;;;13.90;5.97;;;0.50;99.90;;;-1.51;100.00;99936.28;10253145;28;98163;-86
2024/01/08 08:24:31;;;;;;;16.67;7.37;;;0.50;99.90;;;-1.44;100.00;99942.81;10231030;28;96649;-86
2024/01/08 08:29:47;;;;;;;14.43;6.43;;;0.60;99.90;;;-1.39;100.00;99945.09;10247365;28;96598;-86
2024/01/08 08:34:51;;;;;;;15.87;7.07;;;0.70;99.90;;;-1.27;100.00;99952.13;10255145;28;96883;-86
2024/01/08 08:39:54;;;;;;;17.20;6.60;;;0.70;99.90;;;-1.18;100.00;99953.34;10251045;28;96833;-86
2024/01/08 08:44:58;;;;;;;14.07;6.33;;;0.80;99.90;;;-1.06;100.00;99959.53;10278488;28;96596;-86
2024/01/08 08:50:02;;;;;;;15.37;6.00;;;0.90;99.90;;;-0.95;100.00;99963.09;10221595;28;97342;-86
2024/01/08 08:55:06;;;;;;;14.00;5.83;;;0.90;99.90;;;-0.86;100.00;99959.03;10240901;28;96608;-86
2024/01/08 09:00:14;;;;;;;28.03;8.60;;;1.00;99.90;;;-0.81;100.00;99965.63;10255685;28;97004;-86
2024/01/08 09:05:23;;;;;;;20.53;7.70;;;1.00;99.90;;;-0.74;100.00;99975.66;10264184;28;96707;-85
2024/01/08 09:10:39;;;;;;;11.50;5.23;;;1.10;99.90;;;-0.67;100.00;99976.94;10258976;28;99304;-86
2024/01/08 09:15:42;;;;;;;11.43;6.27;;;1.10;99.90;;;-0.62;100.00;99974.84;10232727;28;96491;-86
2024/01/08 09:20:47;;;;;;;13.23;5.73;;;1.20;99.90;;;-0.57;100.00;99980.59;10259861;28;96639;-86
2024/01/08 09:25:51;;;;;;;10.87;4.40;;;1.20;99.90;;;-0.52;100.00;99988.13;10252881;28;96495;-86
2024/01/08 09:30:55;;;;;;;8.53;4.10;;;1.20;99.90;;;-0.46;100.00;99992.94;10266459;28;96527;-86
2024/01/08 09:35:59;;;;;;;10.03;4.80;;;1.30;99.90;;;-0.42;100.00;99990.03;10252024;28;96799;-86
2024/01/08 09:41:04;;;;;;;13.37;5.27;;;1.30;99.90;;;-0.36;100.00;99991.38;10251507;28;97896;-85
2024/01/08 09:46:27;;;;;;;15.90;6.90;;;1.40;99.90;;;-0.34;100.00;99989.50;10264722;28;98437;-85
2024/01/08 09:51:31;;;;;;;18.87;7.17;;;1.40;99.90;;;-0.30;100.00;99993.56;10230979;28;96687;-85
2024/01/08 09:56:34;;;;;;;14.30;5.53;;;1.40;99.90;;;-0.26;100.00;99992.44;10225516;28;96524;-85
2024/01/08 10:01:42;;;;;;;10.03;5.47;;;1.50;99.90;;;-0.16;100.00;99980.41;10208603;28;97014;-85
2024/01/08 10:06:47;;;;;;;10.30;4.80;;;1.60;99.90;;;-0.02;100.00;99992.53;10250555;28;96493;-85
2024/01/08 10:11:50;;;;;;;9.07;4.90;;;1.70;99.90;;;0.05;100.00;99985.94;10249794;28;96775;-85
2024/01/08 10:16:55;;;;;;;7.67;3.87;;;1.80;99.90;;;0.15;100.00;99986.16;10236435;28;96474;-85
2024/01/08 10:22:13;;;;;;;6.03;3.30;;;1.90;99.90;;;0.25;100.00;99977.56;10215652;28;96433;-85
2024/01/08 10:27:17;;;;;;;6.88;3.72;;;2.00;99.90;;;0.38;100.00;99981.94;10232088;28;98290;-85
2024/01/08 10:32:25;;;;;;;7.80;3.50;;;2.20;99.90;;;0.54;100.00;99982.53;10260942;28;96494;-85
2024/01/08 10:37:32;;;;;;;8.37;3.70;;;2.40;99.90;;;0.66;97.59;99978.16;10250440;28;96563;-85
2024/01/08 10:42:38;;;;;;;8.43;3.47;;;2.60;99.90;;;0.69;98.92;99976.16;10249168;28;96631;-86
2024/01/08 10:47:56;;;;;;;7.73;3.27;;;2.70;99.90;;;0.75;95.39;99983.56;10258450;28;96599;-85
2024/01/08 10:53:00;;;;;;;6.37;3.00;;;2.80;99.90;;;0.82;93.91;99990.97;10232464;28;96542;-85
2024/01/08 10:58:08;;;;;;;5.50;2.67;;;2.90;99.90;;;0.87;91.59;99994.09;10235511;28;96642;-85
2024/01/08 11:03:12;;;;;;;4.47;2.53;;;2.90;99.90;;;0.88;89.22;99988.75;10230980;28;96441;-85
2024/01/08 11:08:20;;;;;;;5.57;2.63;;;3.00;99.90;;;0.93;88.61;99998.91;10239646;28;96588;-86
2024/01/08 11:13:25;;;;;;;11.17;4.03;;;3.00;99.90;;;0.86;87.55;99997.66;10256951;28;96555;-85
2024/01/08 11:18:29;;;;;;;7.67;3.40;;;3.00;99.90;;;0.77;88.09;100013.06;10255775;28;96432;-85
2024/01/08 11:23:38;;;;;;;8.67;4.23;;;2.90;99.90;;;0.64;88.59;100007.03;10272960;28;96648;-86
2024/01/08 11:29:04;;;;;;;5.90;3.23;;;2.70;99.90;;;0.58;90.36;100014.50;10275168;28;96475;-86
2024/01/08 11:35:00;;;;;;;6.80;3.10;;;2.60;99.90;;;0.49;91.11;100006.38;10256021;28;96563;-85
2024/01/08 11:40:19;;;;;;;8.53;4.13;;;2.60;99.90;;;0.43;91.81;100005.97;10303565;28;96932;-85
2024/01/08 11:45:23;;;;;;;10.33;3.97;;;2.50;99.90;;;0.42;92.03;100018.22;10253082;28;96621;-84
2024/01/08 11:50:26;;;;;;;7.97;3.70;;;2.50;99.90;;;0.40;92.09;100017.47;10252110;28;96569;-85
2024/01/08 11:55:31;;;;;;;7.93;3.33;;;2.50;99.90;;;0.47;92.63;100004.78;10231909;28;97012;-85
2024/01/08 12:00:35;;;;;;;10.37;4.10;;;2.50;99.90;;;0.61;93.92;100019.53;10250086;28;96602;-85
2024/01/08 12:05:38;;;;;;;8.17;3.97;;;2.70;99.90;;;0.75;94.96;100019.38;10250250;28;96853;-86
2024/01/08 12:10:42;;;;;;;10.30;3.90;;;2.80;99.90;;;0.77;92.11;100012.22;10249278;28;96569;-85
2024/01/08 12:15:49;;;;;;;9.17;4.10;;;2.80;99.90;;;0.73;91.83;100019.47;10249628;28;96627;-85
2024/01/08 12:20:53;;;;;;;10.30;4.00;;;2.80;99.90;;;0.66;93.16;100020.88;10252885;28;96867;-85
2024/01/08 12:25:56;;;;;;;9.67;4.77;;;2.80;99.90;;;0.65;92.57;100018.34;10242486;28;98095;-85
2024/01/08 12:31:00;;;;;;;12.23;4.87;;;2.80;99.90;;;0.71;91.93;100017.91;10230790;28;96603;-86
2024/01/08 12:36:04;;;;;;;14.83;5.63;;;2.80;99.90;;;0.74;93.31;100025.53;10240957;28;97035;-85
2024/01/08 12:41:09;;;;;;;10.30;4.80;;;2.80;99.90;;;0.66;93.76;100023.47;10259820;28;97742;-85
2024/01/08 12:46:13;;;;;;;10.70;4.70;;;2.80;99.90;;;0.59;95.44;100027.44;10250360;28;96629;-86
2024/01/08 12:51:18;;;;;;;7.03;3.47;;;2.70;99.90;;;0.56;96.21;100037.31;10253479;28;96656;-86
2024/01/08 12:56:21;;;;;;;10.77;4.50;;;2.70;99.90;;;0.60;94.75;100038.75;10251219;28;96577;-85
2024/01/08 13:01:25;;;;;;;10.43;4.83;;;2.70;99.90;;;0.64;93.71;100046.28;10234871;28;96542;-85
2024/01/08 13:06:29;;;;;;;12.23;4.47;;;2.70;99.90;;;0.69;92.87;100041.56;10245953;28;96571;-86
2024/01/08 13:11:35;;;;;;;7.90;3.97;;;2.80;99.90;;;0.76;92.19;100061.09;10251087;28;96485;-86
2024/01/08 13:16:40;;;;;;;6.33;3.57;;;2.80;99.90;;;0.76;92.15;100063.72;10230272;28;98071;-86
2024/01/08 13:21:45;;;;;;;12.30;4.47;;;2.90;99.90;;;0.79;90.68;100071.34;10278561;28;96487;-85
2024/01/08 13:26:49;;;;;;;7.33;4.20;;;2.90;99.90;;;0.85;90.61;100074.50;10246704;28;97585;-86
2024/01/08 13:31:53;;;;;;;12.93;4.60;;;2.90;99.90;;;0.87;89.72;100072.59;10250621;28;96913;-86
2024/01/08 13:36:56;;;;;;;8.53;3.93;;;3.00;99.90;;;0.92;89.81;100083.56;10241791;28;97027;-86
2024/01/08 13:41:59;;;;;;;9.83;4.43;;;3.00;99.90;;;0.96;90.01;100085.88;10223295;28;97879;-86
2024/01/08 13:47:03;;;;;;;8.03;4.07;;;3.10;99.90;;;1.03;89.18;100097.56;10249391;28;96580;-86
2024/01/08 13:52:07;;;;;;;10.53;4.50;;;3.10;99.90;;;1.14;86.39;100101.16;10256011;28;96534;-85
2024/01/08 13:57:13;;;;;;;8.87;4.33;;;3.20;99.90;;;1.20;86.81;100104.22;10250107;28;96903;-86
2024/01/08 14:02:17;;;;;;;9.50;4.33;;;3.40;99.90;;;1.23;86.84;100106.59;10227549;28;96583;-86
2024/01/08 14:07:21;;;;;;;7.60;4.20;;;3.40;99.90;;;1.26;86.58;100118.59;10248438;28;98002;-86
2024/01/08 14:12:24;;;;;;;7.63;3.80;;;3.40;99.90;;;1.20;87.60;100133.00;10248346;28;97671;-86
2024/01/08 14:17:28;;;;;;;8.37;3.80;;;3.40;99.90;;;1.13;90.37;100136.97;10272218;28;96944;-86
2024/01/08 14:22:31;;;;;;;8.53;4.23;;;3.30;99.90;;;1.09;87.62;100145.19;10247728;28;96948;-86
2024/01/08 14:27:37;;;;;;;16.20;8.17;;;3.30;99.90;;;0.98;89.94;100159.84;10261739;28;98125;-86
2024/01/08 14:32:41;;;;;;;11.60;4.93;;;3.20;99.90;;;0.88;92.21;100160.59;10243087;28;96642;-86
2024/01/08 14:37:47;;;;;;;13.37;5.57;;;3.10;99.90;;;0.76;93.30;100170.13;10252331;28;98262;-86
2024/01/08 14:42:52;;;;;;;10.57;4.93;;;3.00;99.90;;;0.66;93.06;100183.00;10252176;28;96602;-86
2024/01/08 14:47:55;;;;;;;10.77;4.93;;;2.80;99.90;;;0.57;94.77;100188.84;10264377;28;96434;-86
2024/01/08 14:52:59;;;;;;;12.30;4.90;;;2.70;99.90;;;0.46;95.21;100199.19;10234545;28;97510;-86
2024/01/08 14:58:03;;;;;;;10.50;4.67;;;2.60;99.90;;;0.32;95.12;100207.16;10247229;28;98358;-85
2024/01/08 15:03:07;;;;;;;9.90;5.37;;;2.50;99.90;;;0.14;97.22;100204.81;10231757;28;96621;-85
2024/01/08 15:08:11;;;;;;;20.07;7.33;;;2.30;99.90;;;-0.02;98.81;100222.41;10234224;28;97003;-86
2024/01/08 15:13:16;;;;;;;16.60;6.87;;;2.10;99.90;;;-0.21;100.00;100235.00;10239038;28;96923;-85
2024/01/08 15:18:20;;;;;;;18.90;7.97;;;2.00;99.90;;;-0.38;100.00;100239.50;10239677;28;97210;-85
2024/01/08 15:23:24;;;;;;;19.63;9.53;;;1.80;99.90;;;-0.55;100.00;100243.19;10243056;28;99160;-85
2024/01/08 15:28:28;;;;;;;15.63;7.47;;;1.60;99.90;;;-0.64;100.00;100258.59;10267909;28;98501;-85
2024/01/08 15:33:32;;;;;;;9.40;3.40;;;1.50;99.90;;;-0.66;100.00;100253.47;10254884;28;97075;-86
2024/01/08 15:38:36;;;;;;;10.00;3.70;;;1.40;99.90;;;-0.55;94.54;100273.66;10240464;28;96887;-86
2024/01/08 15:43:40;;;;;;;9.93;3.53;;;1.50;99.90;;;-0.45;88.89;100281.78;10300613;28;97616;-86
2024/01/08 15:48:45;;;;;;;6.07;2.30;;;1.60;99.90;;;-0.37;84.15;100277.75;10256796;28;97012;-86
2024/01/08 15:53:49;;;;;;;8.80;2.83;;;1.70;99.90;;;-0.33;85.34;100301.91;10252736;28;96553;-86
2024/01/08 15:58:57;;;;;;;11.63;4.60;;;1.70;99.90;;;-0.36;81.07;100308.16;10253326;28;96515;-85
2024/01/08 16:04:01;;;;;;;8.87;4.40;;;1.70;99.90;;;-0.40;80.47;100314.50;10252990;28;97164;-88
2024/01/08 16:09:05;;;;;;;7.53;2.97;;;1.70;99.90;;;-0.43;80.18;100332.94;10253669;28;96571;-87
2024/01/08 16:14:09;;;;;;;6.20;3.27;;;1.70;99.90;;;-0.49;80.65;100338.56;10238199;28;96640;-85
2024/01/08 16:19:12;;;;;;;7.20;2.70;;;1.60;99.90;;;-0.51;80.04;100343.03;10256564;28;96534;-85
2024/01/08 16:24:16;;;;;;;8.60;3.70;;;1.60;99.90;;;-0.58;76.81;100342.56;10283995;28;96622;-85
2024/01/08 16:29:20;;;;;;;8.50;3.20;;;1.60;99.90;;;-0.50;76.54;100359.53;10212174;28;96991;-85
2024/01/08 16:34:24;;;;;;;11.17;3.93;;;1.60;99.90;;;-0.54;74.34;100366.69;10257279;28;98126;-85
2024/01/08 16:39:34;;;;;;;15.83;4.47;;;1.60;99.90;;;-0.59;74.90;100385.28;10287382;28;97960;-84
2024/01/08 16:44:38;;;;;;;6.63;3.67;;;1.50;99.90;;;-0.60;74.17;100395.78;10236556;28;96541;-86
2024/01/08 16:49:41;;;;;;;8.03;3.70;;;1.50;99.90;;;-0.66;72.24;100410.06;10250627;28;96571;-85
2024/01/08 16:54:45;;;;;;;10.10;3.67;;;1.40;99.90;;;-0.69;73.10;100419.84;10279989;28;98629;-85
2024/01/08 16:59:50;;;;;;;8.63;2.93;;;1.40;99.90;;;-0.78;67.57;100408.19;10251710;28;98235;-85
2024/01/08 17:04:54;;;;;;;7.17;3.00;;;1.30;99.90;;;-0.79;66.92;100432.56;10233939;28;97224;-84
2024/01/08 17:09:58;;;;;;;9.33;3.80;;;1.30;99.90;;;-0.87;67.31;100440.84;10247547;28;96811;-84
2024/01/08 17:15:03;;;;;;;6.90;2.63;;;1.20;99.90;;;-0.91;65.89;100447.19;10262419;28;97667;-85
2024/01/08 17:20:07;;;;;;;7.73;2.90;;;1.10;99.90;;;-0.97;68.22;100447.53;10277535;28;96647;-85
2024/01/08 17:25:11;;;;;;;8.37;2.93;;;1.10;99.90;;;-1.04;68.43;100464.47;10261069;28;97083;-84
2024/01/08 17:30:15;;;;;;;8.87;3.90;;;1.00;99.90;;;-1.09;65.67;100467.31;10250134;28;97580;-84
2024/01/08 17:35:18;;;;;;;9.93;4.57;;;0.90;99.90;;;-1.12;67.35;100477.94;10282726;28;96577;-85
2024/01/08 17:40:24;;;;;;;7.33;3.23;;;0.90;99.90;;;-1.19;67.95;100481.84;10249920;28;96556;-84
2024/01/08 17:45:28;;;;;;;7.80;2.93;;;0.80;99.90;;;-1.26;65.44;100490.06;10256090;28;96629;-84
2024/01/08 17:50:32;;;;;;;7.07;3.50;;;0.80;99.90;;;-1.22;64.32;100504.63;10265495;28;96671;-84
2024/01/08 17:55:36;;;;;;;7.43;3.20;;;0.80;99.90;;;-1.30;64.30;100505.06;10245103;28;98140;-84
2024/01/08 18:00:40;;;;;;;6.73;2.60;;;0.70;99.90;;;-1.33;63.92;100520.00;10237195;28;97434;-84
2024/01/08 18:05:44;;;;;;;6.93;2.90;;;0.70;99.90;;;-1.38;63.22;100521.13;10241226;28;97514;-84
2024/01/08 18:10:52;;;;;;;7.67;3.33;;;0.70;99.90;;;-1.41;65.39;100533.47;10266173;28;96588;-84
2024/01/08 18:15:56;;;;;;;12.03;3.70;;;0.60;99.90;;;-1.48;66.57;100537.34;10253929;28;97326;-83
2024/01/08 18:21:27;;;;;;;6.10;2.73;;;0.60;99.90;;;-1.61;69.38;100542.38;10249209;28;97621;-84
2024/01/08 18:26:30;;;;;;;9.63;3.37;;;0.40;99.90;;;-1.71;70.73;100542.00;10247533;28;97095;-84
2024/01/08 18:31:34;;;;;;;12.53;4.87;;;0.40;99.90;;;-1.78;71.98;100556.28;10256086;28;97058;-84
2024/01/08 18:36:37;;;;;;;13.40;4.53;;;0.30;99.90;;;-1.84;72.65;100563.59;10264865;28;96588;-84
2024/01/08 18:41:42;;;;;;;10.97;5.70;;;0.20;99.90;;;-1.89;73.60;100576.84;10250234;28;96575;-84
2024/01/08 18:46:46;;;;;;;7.73;3.53;;;0.10;99.90;;;-1.96;74.64;100581.53;10257666;28;96569;-84
2024/01/08 18:51:49;;;;;;;9.23;3.30;;;0.10;99.90;;;-2.06;76.18;100585.53;10268537;28;97066;-84
2024/01/08 18:56:56;;;;;;;7.43;3.43;;;0.00;99.90;;;-2.10;78.07;100598.78;10251804;28;96611;-84
2024/01/08 19:02:07;;;;;;;8.00;3.92;;;-0.10;99.90;;;-2.19;80.16;100597.50;10239383;28;96641;-84
2024/01/08 19:07:12;;;;;;;7.23;3.20;;;-0.10;99.90;;;-2.22;80.12;100602.84;10262235;28;96548;-84
2024/01/08 19:12:16;;;;;;;6.73;3.20;;;-0.10;99.90;;;-2.15;79.10;100617.25;10248921;28;96519;-84
2024/01/08 19:17:20;;;;;;;10.07;3.53;;;-0.10;99.90;;;-2.08;79.39;100613.41;10261661;28;96580;-84
2024/01/08 19:22:25;;;;;;;9.07;4.00;;;0.00;99.90;;;-1.99;77.77;100636.38;10296045;28;96839;-84
2024/01/08 19:27:28;;;;;;;8.17;3.57;;;0.10;99.90;;;-1.92;78.02;100642.97;10257984;28;96369;-84
2024/01/08 19:32:32;;;;;;;8.93;3.57;;;0.20;99.90;;;-1.92;77.63;100636.91;10248438;28;96627;-84
2024/01/08 19:37:36;;;;;;;12.33;3.47;;;0.20;99.90;;;-1.89;73.09;100648.03;10253381;28;96604;-84
2024/01/08 19:42:39;;;;;;;11.50;4.33;;;0.20;99.90;;;-1.81;71.61;100657.22;10246971;28;96555;-84
2024/01/08 19:47:43;;;;;;;7.83;3.17;;;0.30;99.90;;;-1.76;72.36;100663.88;10275036;28;96730;-84
2024/01/08 19:52:47;;;;;;;7.27;3.40;;;0.30;99.90;;;-1.71;68.67;100659.28;10242864;28;96436;-84
2024/01/08 19:57:51;;;;;;;6.10;2.80;;;0.40;99.90;;;-1.63;68.33;100669.28;10251806;28;96603;-84
2024/01/08 20:02:54;;;;;;;7.90;2.67;;;0.50;99.90;;;-1.57;66.90;100668.97;10247655;28;96823;-83
2024/01/08 20:07:58;;;;;;;7.87;3.47;;;0.60;99.90;;;-1.57;66.07;100668.13;10254451;28;96875;-83
2024/01/08 20:13:02;;;;;;;7.70;2.77;;;0.60;99.90;;;-1.52;66.51;100681.78;10252202;28;96908;-83
2024/01/08 20:18:07;;;;;;;5.80;2.60;;;0.70;99.90;;;-1.49;64.71;100682.47;10254522;28;96595;-83
2024/01/08 20:23:12;;;;;;;5.07;2.50;;;0.70;99.90;;;-1.47;62.09;100691.06;10253970;28;96571;-84
2024/01/08 20:28:15;;;;;;;7.10;2.77;;;0.70;99.90;;;-1.53;60.37;100696.56;10261770;28;96401;-83
2024/01/08 20:33:19;;;;;;;6.70;2.60;;;0.70;99.90;;;-1.59;60.67;100701.25;10258555;28;96508;-83
2024/01/08 20:38:22;;;;;;;6.10;2.30;;;0.60;99.90;;;-1.68;59.99;100702.56;10254413;28;98107;-84
2024/01/08 20:43:25;;;;;;;4.40;2.00;;;0.50;99.90;;;-1.75;59.29;100703.78;10262113;28;97791;-84
2024/01/08 20:48:29;;;;;;;8.00;2.17;;;0.40;99.90;;;-1.82;57.83;100715.44;10253511;28;96573;-84
2024/01/08 20:53:33;;;;;;;4.90;2.50;;;0.30;99.60;;;-1.91;59.66;100725.41;10259136;28;96561;-84
2024/01/08 20:58:37;;;;;;;7.73;2.27;;;0.30;99.90;;;-2.02;60.40;100738.13;10253089;28;97922;-83
2024/01/08 21:03:40;;;;;;;5.90;2.57;;;0.20;99.90;;;-2.12;60.33;100738.63;10247545;28;96489;-84